This is the latest recevied weather packets stored in our database for station/object DPX206-15. If no packets are shown the sender has not sent any weather packets the latest 10 day(s).
| Time | Temp. | Humidity | Pressure | Rain* | Wind** | Luminosity | Snow |
|---|---|---|---|---|---|---|---|
| 1777444809 | 9.44° C | 59% | 1029.2 hPa | 0 mm | - | 215 W/m² | - |
| 1777444058 | 8.33° C | 62% | 1028.8 hPa | 0 mm | - | 205 W/m² | - |
| 1777443308 | 7.78° C | 64% | 1029.1 hPa | 0 mm | - | 186 W/m² | - |
| 1777442558 | 7.22° C | 65% | 1028.7 hPa | 0 mm | - | 159 W/m² | - |
| 1777441808 | 6.67° C | 68% | 1028.3 hPa | 0 mm | - | 127 W/m² | - |
| 1777441057 | 6.11° C | 70% | 1028.5 hPa | 0 mm | - | 96 W/m² | - |
| 1777440307 | 5° C | 73% | 1028.3 hPa | 0 mm | - | 78 W/m² | - |
| 1777439557 | 4.44° C | 75% | 1028.4 hPa | 0 mm | - | 55 W/m² | - |
| 1777438807 | 3.33° C | 78% | 1028.1 hPa | 0 mm | - | 41 W/m² | - |
| 1777438056 | 1.67° C | 80% | 1028.2 hPa | 0 mm | - | 22 W/m² | - |
| 1777437306 | 0.56° C | 80% | 1028.1 hPa | 0 mm | - | 15 W/m² | - |
| 1777436556 | 0° C | 80% | 1027.9 hPa | 0 mm | - | 7 W/m² | - |
| 1777435806 | 0° C | 80% | 1027.8 hPa | 0 mm | - | 3 W/m² | - |
| 1777435055 | 0° C | 80% | 1028 hPa | 0 mm | - | 0 W/m² | - |
| 1777434305 | 0° C | 79% | 1028 hPa | 0 mm | - | 0 W/m² | - |
| 1777433555 | 0.56° C | 79% | 1027.8 hPa | 0 mm | - | 0 W/m² | - |
| 1777432805 | 0.56° C | 78% | 1027.9 hPa | 0 mm | - | 0 W/m² | - |
| 1777432054 | 0.56° C | 78% | 1027.8 hPa | 0 mm | - | 0 W/m² | - |
| 1777431304 | 0.56° C | 78% | 1027.8 hPa | 0 mm | - | 0 W/m² | - |
| 1777430554 | 0.56° C | 77% | 1027.8 hPa | 0 mm | - | 0 W/m² | - |
| 1777429804 | 1.11° C | 77% | 1027.8 hPa | 0 mm | - | 0 W/m² | - |
| 1777429054 | 1.11° C | 77% | 1027.7 hPa | 0 mm | - | 0 W/m² | - |
| 1777428304 | 1.11° C | 76% | 1027.9 hPa | 0 mm | - | 0 W/m² | - |
| 1777427554 | 1.11° C | 76% | 1028 hPa | 0 mm | - | 0 W/m² | - |
| 1777426803 | 1.11° C | 75% | 1028.2 hPa | 0 mm | - | 0 W/m² | - |
* Rain latest hour (hover to see other rain measurements)
** Current wind speed in m/s (hover to see current wind gust speed)